createdAt,value
2018-08-31T00:02:23.645Z,2.87
2018-08-31T00:10:38.911Z,2.90
2018-08-31T00:15:31.440Z,2.30
2018-08-31T00:20:23.949Z,2.50
2018-08-31T00:26:10.570Z,2.63
2018-08-31T00:33:28.625Z,3.30
2018-08-31T00:38:48.605Z,2.47
2018-08-31T00:44:00.778Z,2.87
2018-08-31T00:48:53.409Z,2.33
2018-08-31T00:53:46.019Z,3.13
2018-08-31T00:58:38.551Z,2.93
2018-08-31T01:03:31.088Z,4.93
2018-08-31T01:08:23.655Z,9.37
2018-08-31T01:13:16.192Z,16.00
2018-08-31T01:18:08.760Z,12.97
2018-08-31T01:23:01.346Z,4.40
2018-08-31T01:27:53.947Z,2.90
2018-08-31T01:32:46.556Z,3.27
2018-08-31T01:37:39.132Z,2.73
2018-08-31T01:42:31.772Z,2.53
2018-08-31T01:47:24.284Z,3.17
2018-08-31T01:52:16.826Z,2.40
2018-08-31T01:57:09.482Z,2.60
2018-08-31T02:02:02.171Z,2.47
2018-08-31T02:12:16.448Z,2.37
2018-08-31T02:17:08.966Z,2.03
2018-08-31T02:22:01.478Z,2.27
2018-08-31T02:26:54.097Z,2.67
2018-08-31T02:31:46.666Z,2.73
2018-08-31T02:36:39.234Z,2.73
2018-08-31T02:41:31.778Z,2.10
2018-08-31T02:46:24.382Z,2.47
2018-08-31T02:51:17.002Z,2.87
2018-08-31T02:56:10.084Z,2.13
2018-08-31T03:01:02.693Z,2.40
2018-08-31T03:05:55.243Z,2.73
2018-08-31T03:10:47.867Z,2.93
2018-08-31T03:15:40.442Z,2.90
2018-08-31T03:20:33.003Z,3.03
2018-08-31T03:25:25.537Z,2.47
2018-08-31T03:30:18.065Z,2.93
2018-08-31T03:35:10.643Z,3.00
2018-08-31T03:40:03.398Z,2.73
2018-08-31T03:44:55.995Z,2.60
2018-08-31T03:49:48.586Z,2.93
2018-08-31T03:54:41.148Z,2.97
2018-08-31T03:59:33.754Z,2.80
2018-08-31T04:04:26.310Z,2.97
2018-08-31T04:09:18.871Z,2.83
2018-08-31T04:14:11.535Z,2.63
2018-08-31T04:19:12.877Z,2.87
2018-08-31T04:24:05.487Z,2.93
2018-08-31T04:28:58.054Z,2.73
2018-08-31T04:33:50.594Z,2.80
2018-08-31T04:38:43.116Z,2.57
2018-08-31T04:43:35.641Z,3.13
2018-08-31T04:48:28.206Z,3.20
2018-08-31T04:53:20.833Z,2.90
2018-08-31T04:58:13.388Z,2.80
2018-08-31T05:03:06.074Z,2.63
2018-08-31T05:07:58.690Z,2.37
2018-08-31T05:12:51.304Z,2.80
2018-08-31T05:17:44.279Z,2.50
2018-08-31T05:22:36.918Z,2.93
2018-08-31T05:27:29.418Z,2.83
2018-08-31T05:32:21.960Z,3.23
2018-08-31T05:37:14.519Z,2.93
2018-08-31T05:42:07.138Z,3.10
2018-08-31T05:46:59.694Z,2.70
2018-08-31T05:51:52.181Z,3.10
2018-08-31T05:56:44.774Z,3.10
2018-08-31T06:01:37.439Z,2.90
2018-08-31T06:06:30.059Z,2.70
2018-08-31T06:11:22.647Z,2.73
2018-08-31T06:16:15.236Z,2.93
2018-08-31T06:21:07.969Z,3.07
2018-08-31T06:26:00.497Z,3.20
2018-08-31T06:30:53.440Z,3.30
2018-08-31T06:35:45.997Z,3.00
2018-08-31T06:40:38.768Z,2.93
2018-08-31T06:45:31.503Z,3.27
2018-08-31T06:50:24.202Z,3.23
2018-08-31T06:55:16.838Z,4.10
2018-08-31T07:00:09.595Z,3.50
2018-08-31T07:05:02.245Z,4.13
2018-08-31T07:09:54.790Z,3.70
2018-08-31T07:14:47.397Z,3.73
2018-08-31T07:19:40.096Z,4.73
2018-08-31T07:24:32.748Z,4.53
2018-08-31T07:29:25.459Z,4.60
2018-08-31T07:34:18.062Z,4.83
2018-08-31T07:39:11.102Z,4.53
2018-08-31T07:44:03.847Z,4.83
2018-08-31T07:48:56.410Z,4.50
2018-08-31T07:53:49.082Z,4.97
2018-08-31T07:58:41.674Z,4.17
2018-08-31T08:03:34.416Z,3.93
2018-08-31T08:08:26.970Z,3.80
2018-08-31T08:13:19.703Z,4.97
2018-08-31T08:18:12.449Z,4.60
2018-08-31T08:23:05.051Z,4.23
2018-08-31T08:27:57.657Z,5.33
2018-08-31T08:32:50.215Z,4.97
2018-08-31T08:37:42.943Z,4.87
2018-08-31T08:42:35.586Z,5.27
2018-08-31T08:47:28.547Z,4.53
2018-08-31T08:52:21.151Z,4.47
2018-08-31T08:57:14.744Z,4.23
2018-08-31T09:02:07.449Z,4.00
2018-08-31T09:07:00.225Z,4.10
2018-08-31T09:11:52.959Z,4.20
2018-08-31T09:16:45.603Z,4.07
2018-08-31T09:21:38.245Z,4.60
2018-08-31T09:26:31.219Z,4.20
2018-08-31T09:31:23.903Z,4.13
2018-08-31T09:36:16.704Z,4.30
2018-08-31T09:41:09.311Z,3.97
2018-08-31T09:46:02.117Z,3.77
2018-08-31T09:50:54.774Z,4.40
2018-08-31T09:55:47.328Z,3.70
2018-08-31T10:00:45.719Z,3.80
2018-08-31T10:05:38.346Z,3.77
2018-08-31T10:10:30.900Z,3.93
2018-08-31T10:15:23.453Z,4.10
2018-08-31T10:20:16.360Z,4.23
2018-08-31T10:25:09.047Z,3.67
2018-08-31T10:30:01.690Z,3.87
2018-08-31T10:34:54.332Z,3.77
2018-08-31T10:39:47.099Z,3.90
2018-08-31T10:44:39.719Z,4.07
2018-08-31T10:49:32.379Z,4.07
2018-08-31T10:54:24.999Z,4.27
2018-08-31T10:59:17.707Z,4.13
2018-08-31T11:04:10.343Z,4.07
2018-08-31T11:09:03.950Z,4.60
2018-08-31T11:13:56.550Z,3.77
2018-08-31T11:18:49.346Z,4.30
2018-08-31T11:23:41.911Z,5.00
2018-08-31T11:28:34.550Z,5.20
2018-08-31T11:33:27.206Z,4.00
2018-08-31T11:38:19.826Z,4.97
2018-08-31T11:43:12.557Z,4.60
2018-08-31T11:48:05.232Z,4.50
2018-08-31T11:52:58.145Z,4.43
2018-08-31T11:57:50.763Z,4.63
2018-08-31T12:02:43.399Z,4.17
2018-08-31T12:07:36.138Z,4.73
2018-08-31T12:12:28.844Z,4.30
2018-08-31T12:17:21.726Z,4.83
2018-08-31T12:22:14.370Z,4.80
2018-08-31T12:27:07.029Z,4.23
2018-08-31T12:31:59.706Z,4.20
2018-08-31T12:36:52.643Z,4.10
2018-08-31T12:41:45.191Z,4.30
2018-08-31T12:46:37.742Z,4.50
2018-08-31T12:51:30.883Z,4.27
2018-08-31T12:56:23.637Z,3.70
2018-08-31T13:01:17.058Z,3.97
2018-08-31T13:06:09.901Z,4.50
2018-08-31T13:11:02.537Z,4.13
2018-08-31T13:15:55.165Z,4.00
2018-08-31T13:20:47.844Z,3.80
2018-08-31T13:25:40.642Z,3.80
2018-08-31T13:30:33.240Z,3.23
2018-08-31T13:35:25.753Z,3.83
2018-08-31T13:40:18.369Z,3.37
2018-08-31T13:45:11.172Z,3.77
2018-08-31T13:50:03.780Z,3.63
2018-08-31T13:54:56.389Z,3.60
2018-08-31T13:59:49.311Z,3.87
2018-08-31T14:04:42.085Z,3.57
2018-08-31T14:09:34.842Z,3.60
2018-08-31T14:14:27.409Z,3.13
2018-08-31T14:19:20.004Z,3.30
2018-08-31T14:24:12.633Z,3.23
2018-08-31T14:29:05.133Z,3.80
2018-08-31T14:33:57.708Z,3.63
2018-08-31T14:38:50.362Z,3.47
2018-08-31T14:43:43.033Z,3.10
2018-08-31T14:48:35.684Z,3.13
2018-08-31T14:53:28.346Z,3.27
2018-08-31T14:58:20.857Z,3.27
2018-08-31T15:03:13.694Z,3.13
2018-08-31T15:08:06.379Z,3.50
2018-08-31T15:12:59.176Z,3.20
2018-08-31T15:17:51.690Z,3.13
2018-08-31T15:22:44.490Z,3.00
2018-08-31T15:27:37.247Z,3.10
2018-08-31T15:32:29.959Z,2.80
2018-08-31T15:37:22.600Z,2.90
2018-08-31T15:42:15.352Z,2.93
2018-08-31T15:47:08.131Z,2.90
2018-08-31T15:52:00.893Z,3.30
2018-08-31T15:56:53.905Z,3.00
2018-08-31T16:01:46.711Z,3.30
2018-08-31T16:06:39.391Z,3.23
2018-08-31T16:11:32.032Z,2.87
2018-08-31T16:16:24.686Z,2.80
2018-08-31T16:21:17.273Z,3.10
2018-08-31T16:26:10.055Z,2.60
2018-08-31T16:31:02.702Z,2.10
2018-08-31T16:35:55.212Z,2.17
2018-08-31T16:40:47.888Z,2.40
2018-08-31T16:45:40.572Z,2.07
2018-08-31T16:50:33.242Z,2.20
2018-08-31T16:55:25.823Z,2.10
2018-08-31T17:00:18.543Z,1.80
2018-08-31T17:05:10.978Z,2.00
2018-08-31T17:10:03.684Z,1.80
2018-08-31T17:14:56.323Z,2.30
2018-08-31T17:19:49.101Z,2.30
2018-08-31T17:24:41.732Z,2.40
2018-08-31T17:29:39.061Z,2.43
2018-08-31T17:34:37.399Z,2.60
2018-08-31T17:39:29.970Z,2.10
2018-08-31T17:44:22.664Z,2.13
2018-08-31T17:49:15.300Z,2.10
2018-08-31T17:54:07.911Z,2.50
2018-08-31T17:59:00.544Z,2.87
2018-08-31T18:03:53.054Z,2.30
2018-08-31T18:08:45.655Z,2.80
2018-08-31T18:13:38.359Z,3.00
2018-08-31T18:18:30.880Z,3.10
2018-08-31T18:23:23.634Z,3.10
2018-08-31T18:28:16.186Z,2.93
2018-08-31T18:33:08.973Z,2.43
2018-08-31T18:38:01.610Z,2.60
2018-08-31T18:42:55.056Z,2.50
2018-08-31T18:47:47.544Z,2.70
2018-08-31T18:52:40.342Z,3.23
2018-08-31T18:57:32.941Z,3.00
2018-08-31T19:02:25.612Z,2.80
2018-08-31T19:07:18.199Z,2.47
2018-08-31T19:12:10.859Z,3.20
2018-08-31T19:17:03.440Z,3.10
2018-08-31T19:21:55.934Z,3.77
2018-08-31T19:26:48.499Z,3.40
2018-08-31T19:31:41.193Z,3.20
2018-08-31T19:36:33.746Z,3.33
2018-08-31T19:41:26.411Z,3.43
2018-08-31T19:46:19.162Z,3.47
2018-08-31T19:51:11.667Z,3.43
2018-08-31T19:56:04.972Z,3.33
2018-08-31T20:00:57.568Z,3.80
2018-08-31T20:05:50.089Z,4.70
2018-08-31T20:10:42.691Z,4.00
2018-08-31T20:15:35.284Z,4.80
2018-08-31T20:20:27.882Z,4.83
2018-08-31T20:25:20.576Z,4.47
2018-08-31T20:30:13.105Z,4.60
2018-08-31T20:35:06.576Z,4.40
2018-08-31T20:39:59.172Z,4.60
2018-08-31T20:44:51.773Z,5.30
2018-08-31T20:49:44.412Z,5.10
2018-08-31T20:54:37.040Z,4.60
2018-08-31T20:59:29.576Z,5.00
2018-08-31T21:04:22.105Z,5.00
2018-08-31T21:09:14.683Z,5.33
2018-08-31T21:14:07.271Z,4.67
2018-08-31T21:18:59.813Z,4.70
2018-08-31T21:23:52.393Z,5.90
2018-08-31T21:28:44.995Z,4.60
2018-08-31T21:33:37.618Z,5.00
2018-08-31T21:38:30.190Z,4.63
2018-08-31T21:43:22.800Z,5.07
2018-08-31T21:48:15.375Z,5.10
2018-08-31T21:53:08.108Z,4.57
2018-08-31T21:58:00.627Z,5.53
2018-08-31T22:02:53.292Z,5.13
2018-08-31T22:07:46.238Z,5.30
2018-08-31T22:12:38.792Z,5.17
2018-08-31T22:17:31.421Z,4.87
2018-08-31T22:22:23.966Z,4.77
2018-08-31T22:27:16.555Z,5.07
2018-08-31T22:32:09.188Z,4.77
2018-08-31T22:37:01.820Z,4.97
2018-08-31T22:41:54.402Z,4.80
2018-08-31T22:46:46.914Z,4.60
2018-08-31T22:51:39.612Z,5.17
2018-08-31T22:56:32.155Z,5.20
2018-08-31T23:01:24.698Z,4.93
2018-08-31T23:06:17.252Z,5.10
2018-08-31T23:11:10.934Z,5.60
2018-08-31T23:16:03.608Z,5.10
2018-08-31T23:20:56.167Z,5.57
2018-08-31T23:25:49.736Z,4.90
2018-08-31T23:30:42.383Z,4.87
2018-08-31T23:35:35.153Z,4.90
2018-08-31T23:40:27.780Z,5.40
2018-08-31T23:45:20.407Z,5.03
2018-08-31T23:50:13.047Z,5.00
2018-08-31T23:55:05.675Z,5.40
2018-08-31T23:59:58.221Z,4.93
